Time;durP1;ratioP1;P1;durP2;ratioP2;P2;SDS_P1;SDS_P2;PMS_P1;PMS_P2;Temp;Humidity;BMP_temperature;BMP_pressure;BME280_temperature;BME280_humidity;BME280_pressure;Samples;Min_cycle;Max_cycle;Signal;HPM_P1;HPM_P2
2022/03/17 16:59:03;;;;;;;3.50;1.45;;;19.00;58.50;;;;;;2299907;62;29884;-71
2022/03/17 17:01:30;;;;;;;3.53;1.15;;;18.80;62.00;;;;;;2291027;62;30168;-71
2022/03/17 17:03:56;;;;;;;2.88;1.33;;;18.70;63.10;;;;;;2291336;62;30376;-70
2022/03/17 17:06:22;;;;;;;2.80;1.27;;;18.60;64.20;;;;;;2291350;62;30750;-71
2022/03/17 17:08:48;;;;;;;2.40;1.25;;;18.50;65.70;;;;;;2283599;62;30419;-71
2022/03/17 17:11:15;;;;;;;5.07;1.38;;;18.30;65.40;;;;;;2275692;62;30095;-69
2022/03/17 17:13:41;;;;;;;2.80;1.27;;;18.30;65.90;;;;;;2282952;62;30413;-71
2022/03/17 17:16:09;;;;;;;5.05;1.60;;;18.20;66.30;;;;;;2288069;62;31824;-69
2022/03/17 17:18:35;;;;;;;6.03;1.80;;;18.00;65.60;;;;;;2291182;62;30198;-69
2022/03/17 17:21:01;;;;;;;4.28;1.80;;;17.90;65.80;;;;;;2289143;62;30226;-69
2022/03/17 17:31:41;;;;;;;3.83;1.38;;;17.60;67.20;;;;;;2290080;62;30137;-69
2022/03/17 17:34:08;;;;;;;3.88;1.55;;;17.50;67.30;;;;;;2283294;62;30041;-70
2022/03/17 17:36:36;;;;;;;2.60;1.50;;;17.40;67.40;;;;;;2282168;62;30951;-74
2022/03/17 17:39:02;;;;;;;4.70;1.33;;;17.40;67.50;;;;;;2283634;62;32784;-73
2022/03/17 17:41:28;;;;;;;3.65;1.50;;;17.40;67.40;;;;;;2291030;62;30125;-73
2022/03/17 17:43:54;;;;;;;2.17;1.30;;;17.30;67.40;;;;;;2284225;62;29973;-73
2022/03/17 17:46:21;;;;;;;3.72;1.50;;;17.30;67.50;;;;;;2282379;62;30982;-72
2022/03/17 17:48:47;;;;;;;2.55;1.27;;;17.30;67.50;;;;;;2284720;62;30415;-72
2022/03/17 17:51:24;;;;;;;5.00;1.73;;;17.20;67.60;;;;;;2278284;62;30643;-74
2022/03/17 17:53:50;;;;;;;3.17;1.40;;;17.20;67.70;;;;;;2291262;62;30811;-74
2022/03/17 17:56:16;;;;;;;3.85;1.92;;;17.20;68.60;;;;;;2291077;62;30933;-73
2022/03/17 17:58:43;;;;;;;2.47;1.30;;;17.10;67.80;;;;;;2290816;62;30384;-75
2022/03/17 18:01:09;;;;;;;4.50;2.10;;;17.00;67.90;;;;;;2283571;62;30090;-73
2022/03/17 18:03:36;;;;;;;8.18;4.10;;;17.00;68.00;;;;;;2290554;62;30201;-76
2022/03/17 18:06:02;;;;;;;40.08;10.05;;;17.00;68.20;;;;;;2290613;62;31839;-76
2022/03/17 18:08:29;;;;;;;20.60;16.60;;;17.00;68.30;;;;;;2282381;62;30194;-76
2022/03/17 18:10:58;;;;;;;21.35;14.40;;;17.00;68.30;;;;;;2277904;62;30601;-75
2022/03/17 18:13:25;;;;;;;17.52;12.48;;;17.00;68.30;;;;;;2277795;62;30122;-75
2022/03/17 18:15:50;;;;;;;15.65;12.68;;;17.00;68.30;;;;;;2285257;62;29966;-75
2022/03/17 18:18:16;;;;;;;17.70;13.30;;;17.00;68.30;;;;;;2285261;62;30534;-74
2022/03/17 18:20:43;;;;;;;19.33;10.48;;;17.00;68.40;;;;;;2277095;62;29983;-72
2022/03/17 18:23:09;;;;;;;12.70;9.90;;;16.90;67.00;;;;;;2262937;62;30216;-72
2022/03/17 18:25:36;;;;;;;14.27;9.15;;;16.80;66.80;;;;;;2277106;62;30089;-73
2022/03/17 18:28:04;;;;;;;15.70;10.32;;;16.80;67.10;;;;;;2262750;62;30629;-74
2022/03/17 18:30:31;;;;;;;16.92;11.73;;;16.80;68.40;;;;;;2269743;62;29992;-72
2022/03/17 18:32:57;;;;;;;16.15;12.15;;;16.80;68.00;;;;;;2262877;62;30216;-74
2022/03/17 18:35:29;;;;;;;17.08;11.35;;;16.80;68.10;;;;;;2269615;62;30145;-74
2022/03/17 18:37:56;;;;;;;16.63;11.25;;;16.80;68.40;;;;;;2274823;62;30878;-75
2022/03/17 18:40:22;;;;;;;17.77;11.82;;;16.80;68.50;;;;;;2272919;62;30615;-73
2022/03/17 18:42:56;;;;;;;14.15;10.45;;;16.80;68.50;;;;;;2281461;62;30022;-72
2022/03/17 18:45:21;;;;;;;17.92;11.10;;;16.80;68.50;;;;;;2284847;62;32396;-75
2022/03/17 18:47:47;;;;;;;19.50;9.82;;;16.70;68.50;;;;;;2277158;62;31112;-73
2022/03/17 18:50:13;;;;;;;15.95;9.80;;;16.80;68.60;;;;;;2277656;62;30304;-74
2022/03/17 18:52:39;;;;;;;16.33;9.65;;;16.70;68.70;;;;;;2270938;62;30234;-74
2022/03/17 18:55:06;;;;;;;17.95;10.45;;;16.70;68.80;;;;;;2277525;62;30058;-75
2022/03/17 18:57:32;;;;;;;17.33;10.13;;;16.70;68.90;;;;;;2284696;62;30642;-72
2022/03/17 18:59:58;;;;;;;13.80;10.45;;;16.70;69.00;;;;;;2284080;62;31073;-74
2022/03/17 19:02:24;;;;;;;12.68;9.50;;;16.80;69.10;;;;;;2284091;62;30330;-73
2022/03/17 19:04:52;;;;;;;16.77;9.15;;;16.80;69.10;;;;;;2277574;62;30799;-74
2022/03/17 19:07:18;;;;;;;13.27;8.25;;;16.80;69.10;;;;;;2284864;62;30166;-77
2022/03/17 19:09:44;;;;;;;13.43;8.77;;;16.80;69.20;;;;;;2284976;62;30176;-75
2022/03/17 19:12:10;;;;;;;38.05;9.75;;;16.80;69.40;;;;;;2277512;62;30207;-74
2022/03/17 19:14:36;;;;;;;13.20;8.40;;;16.80;69.40;;;;;;2285124;62;30237;-75
2022/03/17 19:17:08;;;;;;;10.50;7.80;;;16.80;69.40;;;;;;2282363;62;30426;-73
2022/03/17 19:19:41;;;;;;;11.38;8.05;;;16.80;69.40;;;;;;2277261;62;30266;-73
2022/03/17 19:22:10;;;;;;;11.27;7.60;;;16.90;69.60;;;;;;2282318;62;30106;-73
2022/03/17 19:24:37;;;;;;;8.80;6.65;;;16.90;69.80;;;;;;2276232;62;30980;-73
2022/03/17 19:27:03;;;;;;;8.65;5.80;;;17.00;69.80;;;;;;2284179;62;31190;-71
2022/03/17 19:29:30;;;;;;;9.48;5.85;;;17.00;69.60;;;;;;2277160;62;30193;-71
2022/03/17 19:31:57;;;;;;;8.90;5.22;;;17.10;69.60;;;;;;2281034;62;30524;-74
2022/03/17 19:34:23;;;;;;;7.32;4.50;;;17.10;69.40;;;;;;2282156;62;30419;-73
2022/03/17 19:36:48;;;;;;;6.75;4.78;;;17.20;69.30;;;;;;2276638;62;31218;-73
2022/03/17 19:39:14;;;;;;;6.57;4.03;;;17.20;69.30;;;;;;2284671;62;30041;-73
2022/03/17 19:41:46;;;;;;;6.65;3.78;;;17.30;69.30;;;;;;2284662;62;30558;-73
2022/03/17 19:44:16;;;;;;;9.93;4.40;;;17.30;69.00;;;;;;2277639;62;30779;-69
2022/03/17 19:46:43;;;;;;;5.63;3.55;;;17.20;69.10;;;;;;2284863;62;31547;-68
2022/03/17 19:49:09;;;;;;;4.50;3.67;;;17.20;69.20;;;;;;2277403;62;30116;-69
2022/03/17 19:51:35;;;;;;;8.25;3.72;;;17.30;69.00;;;;;;2277289;62;30014;-68
2022/03/17 19:54:01;;;;;;;6.57;3.40;;;17.30;69.00;;;;;;2284960;62;29921;-68
2022/03/17 19:56:28;;;;;;;5.88;3.00;;;17.30;68.80;;;;;;2277580;62;30485;-69
2022/03/17 19:58:54;;;;;;;5.07;3.03;;;17.40;68.80;;;;;;2284696;62;31112;-69
2022/03/17 20:01:22;;;;;;;3.80;2.88;;;17.40;68.70;;;;;;2270734;62;30264;-69
2022/03/17 20:03:48;;;;;;;5.25;2.85;;;17.40;68.60;;;;;;2284617;62;30970;-70
2022/03/17 20:06:15;;;;;;;4.32;2.63;;;17.50;68.80;;;;;;2276684;62;30951;-70
2022/03/17 20:08:41;;;;;;;4.10;2.45;;;17.40;68.50;;;;;;2284070;62;30378;-69
2022/03/17 20:13:52;;;;;;;4.00;2.55;;;17.40;68.50;;;;;;2278411;62;32154;-69
2022/03/17 20:16:24;;;;;;;3.97;2.38;;;17.40;68.80;;;;;;2284760;62;31531;-69
2022/03/17 20:18:53;;;;;;;3.67;2.28;;;17.40;68.60;;;;;;2284337;62;30023;-69
2022/03/17 20:21:20;;;;;;;3.78;2.72;;;17.40;68.60;;;;;;2277210;62;29999;-69
2022/03/17 20:23:46;;;;;;;4.55;2.25;;;17.40;68.60;;;;;;2277297;62;30879;-69
2022/03/17 20:26:13;;;;;;;2.85;2.33;;;17.40;68.60;;;;;;2284596;62;30024;-69
2022/03/17 20:28:42;;;;;;;2.42;2.00;;;17.40;68.60;;;;;;2284684;62;30028;-69
2022/03/17 20:31:10;;;;;;;2.47;1.92;;;17.50;68.60;;;;;;2270802;62;30330;-69
2022/03/17 20:33:37;;;;;;;7.88;2.10;;;17.50;68.50;;;;;;2276909;62;30320;-69
2022/03/17 20:36:03;;;;;;;3.72;1.88;;;17.40;68.30;;;;;;2276119;62;30845;-69
2022/03/17 20:38:29;;;;;;;3.75;2.08;;;17.40;68.10;;;;;;2269523;62;30800;-70
2022/03/17 20:40:56;;;;;;;2.90;1.90;;;17.40;68.30;;;;;;2283721;62;30290;-69
2022/03/17 20:43:23;;;;;;;2.15;1.83;;;17.40;68.40;;;;;;2270274;62;30922;-69
2022/03/17 20:45:51;;;;;;;4.53;2.00;;;17.40;68.50;;;;;;2284436;62;30555;-70
2022/03/17 20:48:17;;;;;;;2.55;1.90;;;17.40;68.40;;;;;;2276874;62;30096;-69
2022/03/17 20:50:43;;;;;;;4.47;1.90;;;17.40;68.40;;;;;;2284781;62;30078;-75
2022/03/17 20:53:09;;;;;;;4.50;1.92;;;17.40;68.40;;;;;;2277158;62;30817;-78
2022/03/17 20:55:36;;;;;;;5.85;2.05;;;17.40;68.30;;;;;;2276947;62;31022;-77
2022/03/17 20:58:03;;;;;;;2.17;1.60;;;17.40;69.00;;;;;;2277154;62;30093;-76
2022/03/17 21:00:29;;;;;;;8.45;2.05;;;17.40;68.30;;;;;;2276548;62;30329;-73
2022/03/17 21:02:55;;;;;;;4.80;2.10;;;17.40;68.20;;;;;;2281986;62;30938;-74
2022/03/17 21:05:21;;;;;;;4.10;2.10;;;17.30;68.40;;;;;;2282716;62;30222;-73
2022/03/17 21:07:48;;;;;;;2.97;1.90;;;17.30;68.20;;;;;;2281410;62;30119;-73
2022/03/17 21:10:14;;;;;;;2.33;1.90;;;17.30;68.70;;;;;;2274749;62;30150;-78
2022/03/17 21:12:40;;;;;;;5.05;1.98;;;17.30;67.90;;;;;;2274539;62;31105;-76
2022/03/17 21:15:07;;;;;;;5.13;2.08;;;17.30;68.00;;;;;;2274710;62;30833;-76
2022/03/17 21:17:34;;;;;;;3.30;1.95;;;17.30;68.30;;;;;;2275280;62;30079;-80
2022/03/17 21:20:01;;;;;;;5.20;2.00;;;17.40;68.40;;;;;;2282531;62;30517;-76
2022/03/17 21:22:27;;;;;;;2.50;1.77;;;17.30;68.40;;;;;;2275521;62;30810;-76
2022/03/17 21:24:53;;;;;;;3.17;1.92;;;17.40;68.40;;;;;;2282319;62;30411;-75
2022/03/17 21:27:20;;;;;;;5.15;1.90;;;17.40;68.40;;;;;;2275647;62;30232;-76
2022/03/17 21:29:46;;;;;;;4.35;1.98;;;17.30;68.30;;;;;;2282941;62;30553;-73
2022/03/17 21:32:12;;;;;;;2.65;2.25;;;17.30;68.50;;;;;;2275736;62;29997;-76
2022/03/17 21:34:38;;;;;;;3.67;1.95;;;17.30;68.60;;;;;;2282683;62;30568;-76
2022/03/17 21:37:04;;;;;;;3.25;2.00;;;17.30;68.60;;;;;;2274579;62;30457;-72
2022/03/17 21:39:30;;;;;;;2.63;1.98;;;17.30;68.70;;;;;;2282687;62;30215;-74
2022/03/17 21:41:56;;;;;;;3.05;1.90;;;17.30;68.70;;;;;;2283011;62;30980;-75
2022/03/17 21:44:22;;;;;;;3.13;2.08;;;17.30;68.60;;;;;;2275811;62;30429;-75
2022/03/17 21:46:51;;;;;;;3.45;1.95;;;17.40;68.70;;;;;;2284330;62;30279;-75
2022/03/17 21:49:23;;;;;;;5.65;2.25;;;17.40;68.60;;;;;;2284306;62;30343;-77
2022/03/17 21:51:49;;;;;;;3.03;2.22;;;17.30;68.40;;;;;;2269743;62;30171;-76
2022/03/17 21:54:15;;;;;;;2.45;2.00;;;17.40;68.30;;;;;;2281239;62;30124;-75
2022/03/17 21:56:41;;;;;;;3.05;2.10;;;17.30;68.30;;;;;;2275927;62;30061;-75
2022/03/17 21:59:07;;;;;;;2.30;1.85;;;17.30;68.40;;;;;;2268365;62;30168;-77
2022/03/17 22:01:33;;;;;;;3.22;2.20;;;17.30;68.50;;;;;;2275994;62;30881;-77
2022/03/17 22:03:59;;;;;;;2.05;1.63;;;17.30;68.50;;;;;;2277861;62;31180;-78
2022/03/17 22:06:24;;;;;;;3.67;2.30;;;17.30;68.50;;;;;;2284186;62;30099;-77
2022/03/17 22:08:52;;;;;;;3.00;2.10;;;17.30;68.50;;;;;;2283866;62;30032;-76
2022/03/17 22:11:18;;;;;;;2.95;2.10;;;17.30;68.50;;;;;;2283864;62;31322;-76
2022/03/17 22:13:45;;;;;;;3.15;2.00;;;17.40;68.40;;;;;;2283348;62;30523;-77
2022/03/17 22:16:11;;;;;;;3.33;1.75;;;17.40;68.40;;;;;;2283331;62;30637;-77
2022/03/17 22:18:37;;;;;;;2.35;1.70;;;17.40;68.30;;;;;;2275019;62;30118;-76
2022/03/17 22:21:03;;;;;;;1.95;1.75;;;17.30;68.10;;;;;;2282175;62;30307;-76
2022/03/17 22:23:29;;;;;;;3.75;2.10;;;17.30;68.20;;;;;;2273490;62;30880;-76
2022/03/17 22:25:55;;;;;;;2.80;1.70;;;17.30;68.30;;;;;;2275586;62;30388;-76
2022/03/17 22:28:21;;;;;;;4.40;2.30;;;17.30;68.40;;;;;;2283177;62;30439;-76
2022/03/17 22:30:47;;;;;;;3.90;2.38;;;17.20;68.70;;;;;;2284137;62;30863;-76
2022/03/17 22:33:13;;;;;;;4.68;2.55;;;17.30;68.40;;;;;;2276377;62;30975;-77
2022/03/17 22:35:39;;;;;;;2.78;2.03;;;17.30;68.40;;;;;;2276572;62;30535;-78
2022/03/17 22:38:05;;;;;;;3.85;2.80;;;17.30;68.30;;;;;;2276556;62;30230;-79
2022/03/17 22:43:16;;;;;;;3.78;2.30;;;17.30;68.40;;;;;;2276038;62;31804;-78
2022/03/17 22:45:42;;;;;;;3.35;2.42;;;17.30;68.30;;;;;;2268463;62;30006;-78
2022/03/17 22:48:08;;;;;;;2.60;2.13;;;17.30;68.30;;;;;;2281137;62;30148;-79
2022/03/17 22:50:33;;;;;;;2.63;2.22;;;17.30;68.30;;;;;;2283879;62;32281;-78
2022/03/17 22:52:59;;;;;;;2.15;1.90;;;17.30;68.30;;;;;;2283625;62;31578;-76
2022/03/17 22:55:28;;;;;;;2.42;2.10;;;17.30;68.10;;;;;;2276049;62;30083;-76
2022/03/17 22:57:54;;;;;;;3.97;2.20;;;17.30;68.00;;;;;;2283631;62;30593;-76
2022/03/17 23:00:35;;;;;;;5.40;2.35;;;17.30;68.10;;;;;;2283088;62;31945;-77
2022/03/17 23:03:01;;;;;;;2.97;2.03;;;17.20;68.20;;;;;;2283623;62;31773;-77
2022/03/17 23:05:30;;;;;;;2.88;2.00;;;17.20;68.20;;;;;;2276419;62;30074;-78
2022/03/17 23:07:57;;;;;;;2.03;1.83;;;17.20;68.30;;;;;;2283131;62;31814;-79
2022/03/17 23:10:25;;;;;;;3.05;2.10;;;17.20;68.30;;;;;;2277593;62;30888;-76
2022/03/17 23:12:52;;;;;;;2.58;1.90;;;17.30;68.30;;;;;;2277525;62;30554;-77
